createdAt,value
2023-02-12T00:00:40.164Z,6.21
2023-02-12T00:05:03.973Z,6.32
2023-02-12T00:09:06.915Z,6.40
2023-02-12T00:13:10.477Z,6.56
2023-02-12T00:17:13.197Z,6.67
2023-02-12T00:21:16.920Z,6.76
2023-02-12T00:25:20.826Z,6.79
2023-02-12T00:29:22.746Z,6.82
2023-02-12T00:33:25.965Z,6.72
2023-02-12T00:37:28.102Z,6.72
2023-02-12T00:41:30.829Z,6.54
2023-02-12T00:45:32.872Z,6.44
2023-02-12T00:49:34.760Z,6.28
2023-02-12T00:53:37.161Z,6.21
2023-02-12T00:57:38.907Z,6.17
2023-02-12T01:01:40.888Z,6.10
2023-02-12T01:05:43.001Z,6.11
2023-02-12T01:09:44.772Z,6.06
2023-02-12T01:13:46.947Z,6.12
2023-02-12T01:17:52.503Z,6.09
2023-02-12T01:21:54.378Z,6.05
2023-02-12T01:25:58.314Z,6.01
2023-02-12T01:30:00.243Z,5.97
2023-02-12T01:34:03.043Z,6.06
2023-02-12T01:38:05.139Z,6.02
2023-02-12T01:42:07.092Z,6.03
2023-02-12T01:46:13.342Z,5.99
2023-02-12T01:50:19.553Z,5.93
2023-02-12T01:54:25.300Z,5.84
2023-02-12T01:58:31.181Z,5.85
2023-02-12T02:02:34.589Z,5.91
2023-02-12T02:06:58.095Z,6.00
2023-02-12T02:11:00.206Z,5.95
2023-02-12T02:15:04.395Z,5.95
2023-02-12T02:19:25.834Z,5.94
2023-02-12T02:23:33.893Z,5.93
2023-02-12T02:27:40.526Z,5.88
2023-02-12T02:31:47.178Z,5.84
2023-02-12T02:36:23.557Z,5.85
2023-02-12T02:40:35.772Z,5.87
2023-02-12T02:45:10.976Z,5.85
2023-02-12T02:49:44.786Z,5.84
2023-02-12T03:03:11.827Z,5.73
2023-02-12T03:07:27.142Z,5.68
2023-02-12T03:11:32.907Z,5.73
2023-02-12T03:15:38.533Z,5.77
2023-02-12T03:19:57.943Z,5.76
2023-02-12T03:24:28.014Z,5.70
2023-02-12T03:33:22.205Z,5.63
2023-02-12T03:37:32.724Z,5.60
2023-02-12T03:41:47.330Z,5.62
2023-02-12T03:45:51.361Z,5.64
2023-02-12T03:49:57.233Z,5.68
2023-02-12T03:54:02.181Z,5.75
2023-02-12T03:58:08.570Z,5.77
2023-02-12T04:02:10.589Z,5.77
2023-02-12T04:06:25.251Z,5.84
2023-02-12T04:10:35.357Z,5.92
2023-02-12T04:14:54.995Z,6.08
2023-02-12T04:18:57.893Z,6.21
2023-02-12T04:23:37.259Z,6.34
2023-02-12T04:27:51.868Z,6.41
2023-02-12T04:32:01.160Z,6.47
2023-02-12T04:36:12.842Z,6.50
2023-02-12T04:40:18.831Z,6.49
2023-02-12T04:44:26.648Z,6.53
2023-02-12T04:48:28.565Z,6.36
2023-02-12T04:52:30.417Z,6.11
2023-02-12T04:56:32.298Z,5.94
2023-02-12T05:00:34.164Z,5.83
2023-02-12T05:04:36.136Z,5.69
2023-02-12T05:08:37.961Z,5.64
2023-02-12T05:12:40.014Z,5.61
2023-02-12T05:16:41.931Z,5.59
2023-02-12T05:20:43.783Z,5.60
2023-02-12T05:24:45.617Z,5.62
2023-02-12T05:28:47.942Z,5.74
2023-02-12T05:32:49.821Z,5.85
2023-02-12T05:36:51.578Z,5.96
2023-02-12T05:40:53.551Z,6.01
2023-02-12T05:44:55.612Z,6.01
2023-02-12T05:48:57.776Z,6.02
2023-02-12T05:53:01.035Z,6.08
2023-02-12T05:57:11.171Z,6.08
2023-02-12T06:15:42.651Z,6.11
2023-02-12T06:20:03.877Z,6.19
2023-02-12T06:24:20.866Z,6.18
2023-02-12T06:28:24.125Z,6.18
2023-02-12T06:32:31.047Z,6.06
2023-02-12T06:40:44.630Z,6.18
2023-02-12T06:45:04.932Z,6.26
2023-02-12T06:49:06.419Z,6.29
2023-02-12T06:53:07.919Z,6.24
2023-02-12T06:57:09.547Z,6.33
2023-02-12T07:01:26.623Z,6.37
2023-02-12T07:05:28.068Z,6.35
2023-02-12T07:09:31.950Z,6.44
2023-02-12T07:13:34.225Z,6.56
2023-02-12T07:17:38.183Z,6.46
2023-02-12T07:21:39.738Z,6.34
2023-02-12T07:26:00.915Z,6.35
2023-02-12T07:30:05.887Z,6.42
2023-02-12T07:34:29.361Z,6.55
2023-02-12T07:43:38.597Z,6.55
2023-02-12T07:47:54.238Z,6.51
2023-02-12T08:01:21.183Z,6.80
2023-02-12T08:05:23.251Z,6.94
2023-02-12T08:09:30.667Z,7.17
2023-02-12T08:13:34.922Z,7.49
2023-02-12T08:17:37.569Z,7.73
2023-02-12T08:26:16.750Z,8.05
2023-02-12T08:30:18.941Z,8.11
2023-02-12T08:34:23.023Z,8.12
2023-02-12T08:38:24.877Z,8.15
2023-02-12T08:42:27.380Z,8.19
2023-02-12T08:46:32.845Z,8.20
2023-02-12T08:50:34.926Z,8.30
2023-02-12T08:54:37.439Z,8.46
2023-02-12T08:58:39.904Z,8.64
2023-02-12T09:02:42.516Z,8.79
2023-02-12T09:06:46.210Z,8.95
2023-02-12T09:10:48.149Z,8.86
2023-02-12T09:14:51.356Z,8.86
2023-02-12T09:18:53.261Z,8.99
2023-02-12T09:22:55.221Z,8.96
2023-02-12T09:26:57.168Z,8.91
2023-02-12T09:31:03.918Z,8.88
2023-02-12T09:35:06.180Z,9.10
2023-02-12T09:39:08.049Z,9.29
2023-02-12T09:43:53.201Z,9.54
2023-02-12T09:48:15.244Z,9.82
2023-02-12T09:52:20.808Z,9.93
2023-02-12T09:56:26.349Z,9.96
2023-02-12T10:00:31.012Z,9.87
2023-02-12T10:04:32.941Z,9.81
2023-02-12T10:09:11.099Z,9.80
2023-02-12T10:13:30.506Z,9.94
2023-02-12T10:17:44.743Z,10.12
2023-02-12T10:21:59.056Z,10.15
2023-02-12T10:26:18.219Z,10.25
2023-02-12T10:30:25.047Z,10.35
2023-02-12T10:34:34.990Z,10.32
2023-02-12T10:38:42.082Z,10.22
2023-02-12T10:42:46.886Z,10.27
2023-02-12T10:46:48.914Z,10.37
2023-02-12T10:51:08.995Z,10.40
2023-02-12T10:55:24.203Z,10.36
2023-02-12T10:59:25.886Z,10.24
2023-02-12T11:03:33.659Z,10.09
2023-02-12T11:07:47.948Z,9.89
2023-02-12T11:11:50.371Z,9.88
2023-02-12T11:15:52.616Z,9.91
2023-02-12T11:20:52.768Z,10.01
2023-02-12T11:25:07.958Z,10.17
2023-02-12T11:29:23.942Z,10.22
2023-02-12T11:33:34.214Z,10.16
2023-02-12T11:37:41.515Z,10.05
2023-02-12T11:41:43.800Z,9.98
2023-02-12T11:45:49.221Z,9.91
2023-02-12T11:50:02.178Z,9.86
2023-02-12T11:54:05.932Z,9.92
2023-02-12T11:58:22.211Z,9.94
2023-02-12T12:02:39.255Z,10.04
2023-02-12T12:06:48.219Z,10.11
2023-02-12T12:11:08.874Z,10.16
2023-02-12T12:15:37.713Z,10.24
2023-02-12T12:19:55.067Z,10.35
2023-02-12T12:24:15.757Z,10.43
2023-02-12T12:28:45.623Z,10.32
2023-02-12T12:32:52.089Z,10.34
2023-02-12T12:37:27.785Z,10.33
2023-02-12T12:41:49.429Z,10.33
2023-02-12T12:46:14.897Z,10.22
2023-02-12T12:50:42.753Z,10.22
2023-02-12T12:54:57.003Z,10.17
2023-02-12T12:59:21.025Z,10.15
2023-02-12T13:04:17.235Z,10.15
2023-02-12T13:08:46.972Z,10.32
2023-02-12T13:13:00.210Z,10.41
2023-02-12T13:17:29.267Z,10.51
2023-02-12T13:21:41.362Z,10.57
2023-02-12T13:26:07.844Z,10.52
2023-02-12T13:30:22.025Z,10.43
2023-02-12T13:34:28.209Z,10.41
2023-02-12T13:38:34.881Z,10.28
2023-02-12T13:42:50.411Z,10.13
2023-02-12T13:46:59.814Z,10.01
2023-02-12T13:51:20.014Z,9.87
2023-02-12T13:55:30.682Z,9.85
2023-02-12T13:59:32.490Z,9.85
2023-02-12T14:03:36.206Z,9.80
2023-02-12T14:07:53.014Z,9.91
2023-02-12T14:11:55.716Z,9.89
2023-02-12T14:15:58.592Z,9.79
2023-02-12T14:20:27.737Z,9.61
2023-02-12T14:24:35.606Z,9.47
2023-02-12T14:29:06.278Z,9.38
2023-02-12T14:33:07.988Z,9.35
2023-02-12T14:37:18.293Z,9.30
2023-02-12T14:41:37.276Z,9.25
2023-02-12T14:45:39.321Z,9.17
2023-02-12T14:49:48.967Z,9.12
2023-02-12T14:53:53.676Z,9.12
2023-02-12T14:57:59.667Z,9.10
2023-02-12T15:02:03.782Z,9.06
2023-02-12T15:06:19.653Z,8.95
2023-02-12T15:10:24.542Z,8.83
2023-02-12T15:14:34.473Z,8.73
2023-02-12T15:18:54.504Z,8.72
2023-02-12T15:22:56.316Z,8.71
2023-02-12T15:27:00.486Z,8.67
2023-02-12T15:31:05.784Z,8.61
2023-02-12T15:35:24.213Z,8.72
2023-02-12T15:39:27.616Z,8.81
2023-02-12T15:43:34.548Z,8.87
2023-02-12T15:47:36.356Z,8.84
2023-02-12T15:51:41.213Z,8.78
2023-02-12T15:55:47.186Z,8.74
2023-02-12T15:59:53.726Z,8.74
2023-02-12T16:04:07.121Z,8.74
2023-02-12T16:08:15.495Z,8.72
2023-02-12T16:12:21.177Z,8.70
2023-02-12T16:16:29.390Z,8.65
2023-02-12T16:20:31.835Z,8.32
2023-02-12T16:24:38.393Z,8.11
2023-02-12T16:28:40.354Z,8.07
2023-02-12T16:32:43.112Z,8.02
2023-02-12T16:36:48.133Z,8.08
2023-02-12T16:41:17.968Z,8.18
2023-02-12T16:45:30.895Z,8.28
2023-02-12T16:49:32.648Z,8.40
2023-02-12T16:53:43.069Z,8.47
2023-02-12T16:57:45.635Z,8.53
2023-02-12T17:02:09.246Z,8.59
2023-02-12T17:06:11.273Z,8.62
2023-02-12T17:10:14.426Z,8.62
2023-02-12T17:14:19.008Z,8.64
2023-02-12T17:18:20.986Z,8.63
2023-02-12T17:22:26.524Z,8.55
2023-02-12T17:26:28.372Z,8.50
2023-02-12T17:30:31.855Z,8.49
2023-02-12T17:34:46.605Z,8.36
2023-02-12T17:38:50.785Z,8.16
2023-02-12T17:42:52.634Z,8.04
2023-02-12T17:46:54.419Z,7.92
2023-02-12T17:50:57.647Z,7.93
2023-02-12T17:54:59.555Z,7.99
2023-02-12T17:59:01.674Z,8.06
2023-02-12T18:03:03.553Z,8.11
2023-02-12T18:07:05.433Z,8.13
2023-02-12T18:11:14.085Z,8.14
2023-02-12T18:15:15.889Z,8.11
2023-02-12T18:19:17.720Z,8.10
2023-02-12T18:23:19.892Z,8.11
2023-02-12T18:27:22.010Z,8.08
2023-02-12T18:31:24.688Z,8.01
2023-02-12T18:35:26.840Z,8.06
2023-02-12T18:39:29.485Z,8.10
2023-02-12T18:43:33.454Z,8.11
2023-02-12T18:47:35.408Z,8.13
2023-02-12T18:51:39.378Z,8.14
2023-02-12T18:55:41.156Z,8.13
2023-02-12T18:59:42.974Z,8.07
2023-02-12T19:03:46.152Z,8.01
2023-02-12T19:07:47.880Z,7.94
2023-02-12T19:11:51.532Z,7.89
2023-02-12T19:15:53.428Z,7.80
2023-02-12T19:19:55.328Z,7.68
2023-02-12T19:24:03.219Z,7.55
2023-02-12T19:28:13.062Z,7.45
2023-02-12T19:32:15.037Z,7.37
2023-02-12T19:36:23.584Z,7.34
2023-02-12T19:40:25.735Z,7.34
2023-02-12T19:44:30.121Z,7.36
2023-02-12T19:48:37.140Z,7.34
2023-02-12T19:52:39.583Z,7.43
2023-02-12T19:56:51.820Z,7.55
2023-02-12T20:01:00.713Z,7.61
2023-02-12T20:05:04.950Z,7.69
2023-02-12T20:09:14.318Z,7.68
2023-02-12T20:13:27.064Z,7.45
2023-02-12T20:17:37.154Z,7.23
2023-02-12T20:21:41.976Z,7.12
2023-02-12T20:25:51.256Z,7.06
2023-02-12T20:29:59.853Z,7.08
2023-02-12T20:34:04.618Z,7.04
2023-02-12T20:38:12.710Z,7.07
2023-02-12T20:42:27.765Z,7.16
2023-02-12T20:46:38.840Z,7.17
2023-02-12T20:50:41.020Z,7.22
2023-02-12T20:54:48.032Z,7.35
2023-02-12T20:58:52.194Z,7.46
2023-02-12T21:03:02.165Z,7.47
2023-02-12T21:07:09.424Z,7.37
2023-02-12T21:11:25.280Z,7.25
2023-02-12T21:15:33.022Z,7.18
2023-02-12T21:19:36.312Z,7.12
2023-02-12T21:23:46.648Z,6.98
2023-02-12T21:28:02.964Z,7.06
2023-02-12T21:32:25.127Z,7.12
2023-02-12T21:36:38.982Z,7.08
2023-02-12T21:40:41.710Z,7.16
2023-02-12T21:44:44.581Z,7.24
2023-02-12T21:48:49.163Z,7.22
2023-02-12T21:52:51.953Z,7.17
2023-02-12T21:56:54.687Z,7.14
2023-02-12T22:01:06.019Z,7.16
2023-02-12T22:05:08.138Z,7.21
2023-02-12T22:09:11.209Z,7.28
2023-02-12T22:13:13.266Z,7.33
2023-02-12T22:17:15.444Z,7.36
2023-02-12T22:21:18.072Z,7.37
2023-02-12T22:25:21.541Z,7.30
2023-02-12T22:29:23.949Z,7.22
2023-02-12T22:33:26.239Z,7.23
2023-02-12T22:37:28.328Z,7.29
2023-02-12T22:41:31.131Z,7.26
2023-02-12T22:45:33.392Z,7.23
2023-02-12T22:49:35.144Z,7.23
2023-02-12T22:53:37.596Z,7.23
2023-02-12T22:57:39.510Z,7.10
2023-02-12T23:01:41.714Z,6.94
2023-02-12T23:05:44.685Z,6.91
2023-02-12T23:09:46.976Z,6.87
2023-02-12T23:13:49.792Z,6.88
2023-02-12T23:17:51.507Z,7.04
2023-02-12T23:21:53.610Z,7.15
2023-02-12T23:25:56.107Z,7.07
2023-02-12T23:29:57.961Z,7.04
2023-02-12T23:33:59.971Z,7.05
2023-02-12T23:38:03.763Z,7.16
2023-02-12T23:42:05.854Z,7.21
2023-02-12T23:46:08.670Z,7.30
2023-02-12T23:50:10.501Z,7.35
2023-02-12T23:54:12.840Z,7.21
2023-02-12T23:58:15.682Z,7.21
